Yakima Air Terminal McAllister Field
KYKM : rendu visible

Aérodrome :











RETROUVEZ-NOUS SUR...

 
LOGIN :

S'inscrire | Disclaimer

   EN    FR    IT 

 









Légende :    VFR   VFR Marginal   IFR   IFR Intensif   IFR Très Intensif
Visi : 
Plafond : 
>= 8 km
>= 3000ft
5 à 8 km
1000 à 3000 ft
1500m à 5 km
500 à 1000 ft
800 à 1500m
200 à 500 ft
< 800m
< 200 ft
Symboles :   Orages  Brouillard  Fortes neiges  Fortes précipitations  Vent > 20 kt






- Altitude de l'aérodrome : 1099 ft
- Code IATA : YKM


KYKM - Yakima Air Terminal McAllister Field

DERNIER METAR :
  • 231753Z 26008G28KT 4SM R27/4500VP6000FT -RA FEW020 BKN035 OVC060 07/03 A2985 RMK AO2 PK WND 23035/1729 RAB24 SLP113 P0006 60006 T00720033 10117 21011 55014

METARs EXPIRÉS :
  • 231653Z 19009KT 10SM BKN065 09/03 A2982 RMK AO2 PK WND 20032/1624 SLP103 T00940028
  • 231553Z COR 19018G25KT 10SM SCT065 08/01 A2985 RMK AO2 SLP113 T00780011

TAF KYKM
Valide du 23 à 18h jusqu'au 24 à 18h UTC


231727Z 2318/2418 20012G20KT P6SM -SHRA SCT030 OVC040
FM231900 27025G35KT P6SM VCSH BKN070
FM232200 26026G36KT P6SM FEW060
FM240800 28016G24KT P6SM SKC
FM241300 28010G18KT P6SM FEW150



MET'MAP, la Météo Aéronautique d'un coup d'oeil ! - Copyright ORBIFLY Décembre 2007 - Disclaimer

ORBIFLY MET'MAP TEAM :

Programmation & Développement : Alexandra Zaïnal
Sur une idée originale de : Baudouin d'Aumeries
Assistance à la programmation : Marc-Olivier Méhu
Soutien technique & logistique : Manuel Goepfert

Contact : metmap@orbifly.com




SOURCES & CREDITS :

   NOAA       Earth
Advisory